createdAt,value
2024-02-19T00:00:56.966Z,99.90
2024-02-19T00:03:24.263Z,99.90
2024-02-19T00:05:52.346Z,99.90
2024-02-19T00:08:19.610Z,99.90
2024-02-19T00:10:46.637Z,99.90
2024-02-19T00:13:13.752Z,99.90
2024-02-19T00:15:40.866Z,99.90
2024-02-19T00:18:08.168Z,99.90
2024-02-19T00:20:35.302Z,99.90
2024-02-19T00:23:02.816Z,99.90
2024-02-19T00:25:31.334Z,99.90
2024-02-19T00:27:58.473Z,99.90
2024-02-19T00:30:26.828Z,99.90
2024-02-19T00:32:55.453Z,99.90
2024-02-19T00:35:23.308Z,99.90
2024-02-19T00:37:50.718Z,99.90
2024-02-19T00:40:19.526Z,99.90
2024-02-19T00:42:46.934Z,99.90
2024-02-19T00:45:14.614Z,99.90
2024-02-19T00:47:41.847Z,99.90
2024-02-19T00:50:09.803Z,99.90
2024-02-19T00:52:41.379Z,99.90
2024-02-19T00:55:09.797Z,99.90
2024-02-19T00:57:37.379Z,99.90
2024-02-19T01:00:06.337Z,99.90
2024-02-19T01:02:33.295Z,99.90
2024-02-19T01:05:00.795Z,99.90
2024-02-19T01:07:28.098Z,99.90
2024-02-19T01:09:55.128Z,99.90
2024-02-19T01:12:22.156Z,99.90
2024-02-19T01:14:55.327Z,96.50
2024-02-19T01:17:26.055Z,90.00
2024-02-19T01:20:14.056Z,81.80
2024-02-19T01:22:41.319Z,78.00
2024-02-19T01:25:08.874Z,80.70
2024-02-19T01:27:36.241Z,84.80
2024-02-19T01:30:03.561Z,82.00
2024-02-19T01:32:32.394Z,86.10
2024-02-19T01:35:00.758Z,87.10
2024-02-19T01:37:28.275Z,85.40
2024-02-19T01:39:55.289Z,84.30
2024-02-19T01:42:24.000Z,81.70
2024-02-19T01:44:51.238Z,80.90
2024-02-19T01:47:19.195Z,80.70
2024-02-19T01:49:46.492Z,82.10
2024-02-19T01:52:13.929Z,83.10
2024-02-19T01:54:41.245Z,86.40
2024-02-19T01:57:09.293Z,89.80
2024-02-19T01:59:36.816Z,89.30
2024-02-19T02:02:04.636Z,84.70
2024-02-19T02:04:31.857Z,79.10
2024-02-19T02:06:59.734Z,77.10
2024-02-19T02:09:26.999Z,80.90
2024-02-19T02:11:54.015Z,79.40
2024-02-19T02:14:21.339Z,79.00
2024-02-19T02:16:48.553Z,79.50
2024-02-19T02:19:16.768Z,81.80
2024-02-19T02:21:45.784Z,78.80
2024-02-19T02:24:12.844Z,79.70
2024-02-19T02:26:40.990Z,81.50
2024-02-19T02:29:08.555Z,88.50
2024-02-19T02:31:37.875Z,92.20
2024-02-19T02:34:08.150Z,95.40
2024-02-19T02:36:37.978Z,97.40
2024-02-19T02:39:05.737Z,99.30
2024-02-19T02:41:32.787Z,99.60
2024-02-19T02:44:00.418Z,99.70
2024-02-19T02:46:27.624Z,99.90
2024-02-19T02:48:54.898Z,99.80
2024-02-19T02:51:22.421Z,99.50
2024-02-19T02:53:49.352Z,99.90
2024-02-19T02:56:22.803Z,99.90
2024-02-19T02:58:50.571Z,99.90
2024-02-19T03:01:19.933Z,99.90
2024-02-19T03:03:47.080Z,99.90
2024-02-19T03:06:14.179Z,99.90
2024-02-19T03:08:41.420Z,99.90
2024-02-19T03:11:08.528Z,99.90
2024-02-19T03:13:35.645Z,99.90
2024-02-19T03:16:03.109Z,99.90
2024-02-19T03:18:30.119Z,99.90
2024-02-19T03:20:57.719Z,99.90
2024-02-19T03:23:24.828Z,99.90
2024-02-19T03:25:51.773Z,99.90
2024-02-19T03:28:18.873Z,99.90
2024-02-19T03:30:48.397Z,99.90
2024-02-19T03:33:17.274Z,99.90
2024-02-19T03:35:44.427Z,99.90
2024-02-19T03:38:12.288Z,99.90
2024-02-19T03:40:39.224Z,99.90
2024-02-19T03:43:06.448Z,99.90
2024-02-19T03:45:36.698Z,99.90
2024-02-19T03:48:03.995Z,99.90
2024-02-19T03:50:33.395Z,99.90
2024-02-19T03:53:00.366Z,99.90
2024-02-19T03:55:27.382Z,99.90
2024-02-19T03:57:54.554Z,99.90
2024-02-19T04:00:21.915Z,99.90
2024-02-19T04:02:48.810Z,99.90
2024-02-19T04:05:15.793Z,99.90
2024-02-19T04:07:44.066Z,99.90
2024-02-19T04:10:11.487Z,99.90
2024-02-19T04:12:39.510Z,99.90
2024-02-19T04:15:09.999Z,99.90
2024-02-19T04:17:40.433Z,99.90
2024-02-19T04:20:10.976Z,99.90
2024-02-19T04:22:38.508Z,99.90
2024-02-19T04:25:08.992Z,99.90
2024-02-19T04:27:39.537Z,99.90
2024-02-19T04:30:14.152Z,99.90
2024-02-19T04:32:42.682Z,99.90
2024-02-19T04:35:10.633Z,99.90
2024-02-19T04:37:37.883Z,99.90
2024-02-19T04:40:06.128Z,99.90
2024-02-19T04:42:33.169Z,99.90
2024-02-19T04:45:00.185Z,99.90
2024-02-19T04:47:32.017Z,99.90
2024-02-19T04:50:00.650Z,99.90
2024-02-19T04:52:28.003Z,99.90
2024-02-19T04:54:55.076Z,99.90
2024-02-19T04:57:22.168Z,99.90
2024-02-19T04:59:49.166Z,99.90
2024-02-19T05:02:19.418Z,99.90
2024-02-19T05:04:48.013Z,99.90
2024-02-19T05:07:17.006Z,99.90
2024-02-19T05:09:44.546Z,99.90
2024-02-19T05:12:11.630Z,99.90
2024-02-19T05:14:38.653Z,99.90
2024-02-19T05:17:05.815Z,99.90
2024-02-19T05:19:32.852Z,99.90
2024-02-19T05:21:59.909Z,99.90
2024-02-19T05:24:27.067Z,99.90
2024-02-19T05:26:54.016Z,99.90
2024-02-19T05:29:21.231Z,99.90
2024-02-19T05:31:53.024Z,99.90
2024-02-19T05:34:21.316Z,99.90
2024-02-19T05:36:48.509Z,99.90
2024-02-19T05:39:15.585Z,99.90
2024-02-19T05:41:42.684Z,99.90
2024-02-19T05:44:11.139Z,99.90
2024-02-19T05:46:38.609Z,99.90
2024-02-19T05:49:08.316Z,99.90
2024-02-19T05:51:35.388Z,99.90
2024-02-19T05:54:02.477Z,99.90
2024-02-19T05:56:30.356Z,99.90
2024-02-19T05:58:57.782Z,99.90
2024-02-19T06:01:24.926Z,99.90
2024-02-19T06:03:51.913Z,99.90
2024-02-19T06:06:18.870Z,99.90
2024-02-19T06:08:45.897Z,99.90
2024-02-19T06:11:13.070Z,99.90
2024-02-19T06:13:40.313Z,99.90
2024-02-19T06:16:08.614Z,99.90
2024-02-19T06:18:35.772Z,99.90
2024-02-19T06:21:02.821Z,99.90
2024-02-19T06:23:31.182Z,99.90
2024-02-19T06:25:58.211Z,99.90
2024-02-19T06:28:25.895Z,99.90
2024-02-19T06:30:57.312Z,99.90
2024-02-19T06:33:26.015Z,99.90
2024-02-19T06:35:53.848Z,99.90
2024-02-19T06:38:21.115Z,99.90
2024-02-19T06:40:48.198Z,99.90
2024-02-19T06:43:17.152Z,99.90
2024-02-19T06:45:44.408Z,99.90
2024-02-19T06:48:11.474Z,99.90
2024-02-19T06:50:39.769Z,99.90
2024-02-19T06:53:07.691Z,99.90
2024-02-19T06:55:34.682Z,99.90
2024-02-19T06:58:01.675Z,99.90
2024-02-19T07:00:28.709Z,99.90
2024-02-19T07:02:55.666Z,99.90
2024-02-19T07:05:23.069Z,99.90
2024-02-19T07:07:50.517Z,99.90
2024-02-19T07:10:19.331Z,99.90
2024-02-19T07:12:46.381Z,99.90
2024-02-19T07:15:13.913Z,99.90
2024-02-19T07:17:41.100Z,99.90
2024-02-19T07:20:09.534Z,99.90
2024-02-19T07:22:37.091Z,99.90
2024-02-19T07:25:13.585Z,99.90
2024-02-19T07:27:47.398Z,99.90
2024-02-19T07:30:15.887Z,99.90
2024-02-19T07:32:44.278Z,99.90
2024-02-19T07:35:12.225Z,99.90
2024-02-19T07:37:39.920Z,99.90
2024-02-19T07:40:09.303Z,99.90
2024-02-19T07:42:38.127Z,99.90
2024-02-19T07:45:07.260Z,99.90
2024-02-19T07:47:34.582Z,99.90
2024-02-19T07:50:01.797Z,99.90
2024-02-19T07:52:29.031Z,99.90
2024-02-19T07:54:56.085Z,99.90
2024-02-19T07:57:23.069Z,99.90
2024-02-19T07:59:50.077Z,99.90
2024-02-19T08:02:17.153Z,99.90
2024-02-19T08:04:44.398Z,99.90
2024-02-19T08:07:11.379Z,99.90
2024-02-19T08:09:38.693Z,99.90
2024-02-19T08:12:06.150Z,99.90
2024-02-19T08:14:33.246Z,99.90
2024-02-19T08:17:00.238Z,99.90
2024-02-19T08:19:27.338Z,99.90
2024-02-19T08:21:57.727Z,99.90
2024-02-19T08:24:24.997Z,99.90
2024-02-19T08:26:52.007Z,99.90
2024-02-19T08:29:18.945Z,99.90
2024-02-19T08:31:50.160Z,99.90
2024-02-19T08:34:18.364Z,99.90
2024-02-19T08:36:46.125Z,99.90
2024-02-19T08:39:13.358Z,81.50
2024-02-19T08:41:40.324Z,42.60
2024-02-19T08:44:08.520Z,25.10
2024-02-19T08:46:36.075Z,23.60
2024-02-19T08:49:03.102Z,29.70
2024-02-19T08:51:31.111Z,41.50
2024-02-19T08:54:00.068Z,48.70
2024-02-19T08:56:27.497Z,51.80
2024-02-19T08:58:54.619Z,49.30
2024-02-19T09:01:21.744Z,56.80
2024-02-19T09:03:49.679Z,63.20
2024-02-19T09:06:17.496Z,67.00
2024-02-19T09:08:44.759Z,70.70
2024-02-19T09:11:11.889Z,70.70
2024-02-19T09:13:39.043Z,69.60
2024-02-19T09:16:07.366Z,63.90
2024-02-19T09:18:36.987Z,67.70
2024-02-19T09:21:05.936Z,70.60
2024-02-19T09:23:33.115Z,70.80
2024-02-19T09:26:00.073Z,71.50
2024-02-19T09:28:27.169Z,72.20
2024-02-19T09:30:55.181Z,68.10
2024-02-19T09:33:23.794Z,67.60
2024-02-19T09:35:51.744Z,64.90
2024-02-19T09:38:20.048Z,64.80
2024-02-19T09:40:50.690Z,64.70
2024-02-19T09:43:22.222Z,65.70
2024-02-19T09:45:50.448Z,64.70
2024-02-19T09:48:20.925Z,66.90
2024-02-19T09:50:49.427Z,66.90
2024-02-19T09:53:23.948Z,68.10
2024-02-19T09:55:51.312Z,68.50
2024-02-19T09:58:18.437Z,69.20
2024-02-19T10:00:45.620Z,69.90
2024-02-19T10:03:14.914Z,67.90
2024-02-19T10:05:42.107Z,62.40
2024-02-19T10:08:14.187Z,63.60
2024-02-19T10:10:46.903Z,63.00
2024-02-19T10:13:14.965Z,63.10
2024-02-19T10:15:42.295Z,60.30
2024-02-19T10:18:27.402Z,58.80
2024-02-19T10:20:54.655Z,57.90
2024-02-19T10:23:24.180Z,62.90
2024-02-19T10:25:51.720Z,63.30
2024-02-19T10:28:23.548Z,62.70
2024-02-19T10:30:51.930Z,59.30
2024-02-19T10:33:23.878Z,57.70
2024-02-19T10:35:51.644Z,57.30
2024-02-19T10:38:19.969Z,57.30
2024-02-19T10:40:47.179Z,57.10
2024-02-19T10:43:15.475Z,52.90
2024-02-19T10:45:42.781Z,51.40
2024-02-19T10:48:10.416Z,48.50
2024-02-19T10:50:38.395Z,47.40
2024-02-19T10:53:09.368Z,46.50
2024-02-19T10:55:53.022Z,47.40
2024-02-19T10:58:26.796Z,49.10
2024-02-19T11:00:58.899Z,53.60
2024-02-19T11:03:26.205Z,53.50
2024-02-19T11:05:53.601Z,50.40
2024-02-19T11:08:24.485Z,41.60
2024-02-19T11:10:59.183Z,38.80
2024-02-19T11:13:28.906Z,35.20
2024-02-19T11:15:58.995Z,35.50
2024-02-19T11:18:26.801Z,33.40
2024-02-19T11:20:53.844Z,33.20
2024-02-19T11:23:21.778Z,30.40
2024-02-19T11:25:49.095Z,29.00
2024-02-19T11:28:16.381Z,28.20
2024-02-19T11:30:48.723Z,29.70
2024-02-19T11:33:17.896Z,29.10
2024-02-19T11:35:45.798Z,26.70
2024-02-19T11:38:13.729Z,23.70
2024-02-19T11:40:41.011Z,23.40
2024-02-19T11:43:08.631Z,26.00
2024-02-19T11:45:39.382Z,25.40
2024-02-19T11:48:07.418Z,21.90
2024-02-19T11:50:34.825Z,21.30
2024-02-19T11:53:04.477Z,20.20
2024-02-19T11:55:34.403Z,20.70
2024-02-19T11:58:03.227Z,20.10
2024-02-19T12:00:31.995Z,19.40
2024-02-19T12:03:01.050Z,19.20
2024-02-19T12:05:28.847Z,19.10
2024-02-19T12:07:56.552Z,18.30
2024-02-19T12:10:24.082Z,18.40
2024-02-19T12:12:55.544Z,17.10
2024-02-19T12:15:23.014Z,16.90
2024-02-19T12:17:50.499Z,15.40
2024-02-19T12:20:19.683Z,17.50
2024-02-19T12:22:46.856Z,15.50
2024-02-19T12:25:14.236Z,17.30
2024-02-19T12:27:41.730Z,14.40
2024-02-19T12:30:10.611Z,14.10
2024-02-19T12:32:38.748Z,13.70
2024-02-19T12:35:07.456Z,10.20
2024-02-19T12:37:35.498Z,9.00
2024-02-19T12:40:04.483Z,9.10
2024-02-19T12:42:32.004Z,6.90
2024-02-19T12:44:59.238Z,8.00
2024-02-19T12:47:26.404Z,7.30
2024-02-19T12:49:54.420Z,7.70
2024-02-19T12:52:27.619Z,7.30
2024-02-19T12:54:55.355Z,6.00
2024-02-19T12:57:22.599Z,6.00
2024-02-19T12:59:49.779Z,6.50
2024-02-19T13:02:17.581Z,6.20
2024-02-19T13:04:44.965Z,4.80
2024-02-19T13:07:12.299Z,4.10
2024-02-19T13:09:39.497Z,5.70
2024-02-19T13:12:10.450Z,3.70
2024-02-19T13:14:37.835Z,4.00
2024-02-19T13:17:13.285Z,4.30
2024-02-19T13:19:42.997Z,3.80
2024-02-19T13:22:10.178Z,4.80
2024-02-19T13:24:38.148Z,6.20
2024-02-19T13:27:08.662Z,5.90
2024-02-19T13:29:35.861Z,6.60
2024-02-19T13:32:04.374Z,9.00
2024-02-19T13:34:32.129Z,11.40
2024-02-19T13:37:00.900Z,16.80
2024-02-19T13:39:28.654Z,23.20
2024-02-19T13:41:56.057Z,28.70
2024-02-19T13:44:23.001Z,32.50
2024-02-19T13:46:49.903Z,35.40
2024-02-19T13:49:16.923Z,32.80
2024-02-19T13:51:43.992Z,32.80
2024-02-19T13:54:11.150Z,30.50
2024-02-19T13:56:38.170Z,28.10
2024-02-19T13:59:06.942Z,25.00
2024-02-19T14:01:35.419Z,22.40
2024-02-19T14:04:05.328Z,20.60
2024-02-19T14:06:32.435Z,19.10
2024-02-19T14:08:59.828Z,19.10
2024-02-19T14:11:27.574Z,19.10
2024-02-19T14:14:01.432Z,17.60
2024-02-19T14:16:30.334Z,17.20
2024-02-19T14:18:58.293Z,16.00
2024-02-19T14:21:26.796Z,14.50
2024-02-19T14:23:56.637Z,13.30
2024-02-19T14:26:29.870Z,13.60
2024-02-19T14:28:57.172Z,14.30
2024-02-19T14:31:26.956Z,10.90
2024-02-19T14:33:55.096Z,7.40
2024-02-19T14:36:25.637Z,6.90
2024-02-19T14:38:54.102Z,7.70
2024-02-19T14:41:22.525Z,7.60
2024-02-19T14:43:49.505Z,5.50
2024-02-19T14:46:16.640Z,6.20
2024-02-19T14:48:43.883Z,7.00
2024-02-19T14:51:12.354Z,8.70
2024-02-19T14:53:40.448Z,9.40
2024-02-19T14:56:07.907Z,9.90
2024-02-19T14:58:34.893Z,11.20
2024-02-19T15:01:02.286Z,9.90
2024-02-19T15:03:29.961Z,10.90
2024-02-19T15:05:57.192Z,10.80
2024-02-19T15:08:24.328Z,9.90
2024-02-19T15:10:52.523Z,9.00
2024-02-19T15:13:19.731Z,10.00
2024-02-19T15:15:47.027Z,10.10
2024-02-19T15:18:16.314Z,11.20
2024-02-19T15:20:44.783Z,11.30
2024-02-19T15:23:12.092Z,12.90
2024-02-19T15:25:41.834Z,13.50
2024-02-19T15:28:09.482Z,14.60
2024-02-19T15:30:40.324Z,15.80
2024-02-19T15:33:09.720Z,16.60
2024-02-19T15:35:37.803Z,17.20
2024-02-19T15:38:06.163Z,17.50
2024-02-19T15:40:34.628Z,19.10
2024-02-19T15:43:02.009Z,20.60
2024-02-19T15:45:29.164Z,22.30
2024-02-19T15:47:56.482Z,24.90
2024-02-19T15:50:23.866Z,26.00
2024-02-19T15:52:58.377Z,27.50
2024-02-19T15:55:31.996Z,31.60
2024-02-19T15:57:59.150Z,45.40
2024-02-19T16:00:26.436Z,55.30
2024-02-19T16:02:53.657Z,63.40
2024-02-19T16:05:21.124Z,75.60
2024-02-19T16:07:50.743Z,86.60
2024-02-19T16:10:18.078Z,95.40
2024-02-19T16:12:46.574Z,99.90
2024-02-19T16:15:14.470Z,99.90
2024-02-19T16:17:41.814Z,99.90
2024-02-19T16:20:09.860Z,99.90
2024-02-19T16:22:37.974Z,99.90
2024-02-19T16:25:09.485Z,99.90
2024-02-19T16:27:37.308Z,99.90
2024-02-19T16:30:09.090Z,99.90
2024-02-19T16:32:38.910Z,99.90
2024-02-19T16:35:08.715Z,99.90
2024-02-19T16:37:37.862Z,99.90
2024-02-19T16:40:05.961Z,99.90
2024-02-19T16:42:37.113Z,99.90
2024-02-19T16:45:04.344Z,99.90
2024-02-19T16:47:31.421Z,99.90
2024-02-19T16:49:58.639Z,99.90
2024-02-19T16:52:26.615Z,99.90
2024-02-19T16:54:54.304Z,99.90
2024-02-19T16:57:22.640Z,99.90
2024-02-19T16:59:51.144Z,99.90
2024-02-19T17:02:18.529Z,99.90
2024-02-19T17:04:48.618Z,99.90
2024-02-19T17:07:18.137Z,99.90
2024-02-19T17:09:48.954Z,99.90
2024-02-19T17:12:16.021Z,99.90
2024-02-19T17:14:45.319Z,99.90
2024-02-19T17:17:12.964Z,99.90
2024-02-19T17:19:40.738Z,99.90
2024-02-19T17:22:07.967Z,99.90
2024-02-19T17:24:39.741Z,99.90
2024-02-19T17:27:13.184Z,99.90
2024-02-19T17:29:43.734Z,99.90
2024-02-19T17:32:10.975Z,99.90
2024-02-19T17:34:44.676Z,99.90
2024-02-19T17:37:14.137Z,99.90
2024-02-19T17:39:45.665Z,99.90
2024-02-19T17:42:14.301Z,99.90
2024-02-19T17:44:41.298Z,99.90
2024-02-19T17:47:08.875Z,99.90
2024-02-19T17:49:36.000Z,99.90
2024-02-19T17:52:03.086Z,99.90
2024-02-19T17:54:30.921Z,99.90
2024-02-19T17:57:02.050Z,99.90
2024-02-19T17:59:29.745Z,99.90
2024-02-19T18:01:57.713Z,99.90
2024-02-19T18:04:26.504Z,99.90
2024-02-19T18:06:53.569Z,99.90
2024-02-19T18:09:20.576Z,99.90
2024-02-19T18:11:47.477Z,99.90
2024-02-19T18:14:14.581Z,99.90
2024-02-19T18:16:45.842Z,99.90
2024-02-19T18:19:14.754Z,99.90
2024-02-19T18:21:47.841Z,99.90
2024-02-19T18:24:15.253Z,99.90
2024-02-19T18:26:42.574Z,99.90
2024-02-19T18:29:15.346Z,99.90
2024-02-19T18:31:45.007Z,99.90
2024-02-19T18:34:13.103Z,99.90
2024-02-19T18:36:40.950Z,99.90
2024-02-19T18:39:08.088Z,99.90
2024-02-19T18:41:35.092Z,99.90
2024-02-19T18:44:07.095Z,99.90
2024-02-19T18:46:34.647Z,99.90
2024-02-19T18:49:02.645Z,99.90
2024-02-19T18:51:30.323Z,99.90
2024-02-19T18:53:57.449Z,99.90
2024-02-19T18:56:24.491Z,99.90
2024-02-19T18:58:51.546Z,99.90
2024-02-19T19:01:18.735Z,99.90
2024-02-19T19:03:45.879Z,99.90
2024-02-19T19:06:12.983Z,99.90
2024-02-19T19:08:40.379Z,99.90
2024-02-19T19:11:07.816Z,99.90
2024-02-19T19:13:35.320Z,99.90
2024-02-19T19:16:02.414Z,99.90
2024-02-19T19:18:29.778Z,99.90
2024-02-19T19:20:56.935Z,99.90
2024-02-19T19:23:23.980Z,99.90
2024-02-19T19:25:51.046Z,99.90
2024-02-19T19:28:18.045Z,99.90
2024-02-19T19:30:49.321Z,99.90
2024-02-19T19:33:19.230Z,99.90
2024-02-19T19:35:51.201Z,99.90
2024-02-19T19:38:18.244Z,99.90
2024-02-19T19:40:45.774Z,99.90
2024-02-19T19:43:12.920Z,99.90
2024-02-19T19:45:39.995Z,99.90
2024-02-19T19:48:10.102Z,99.90
2024-02-19T19:50:39.016Z,99.90
2024-02-19T19:53:09.223Z,99.90
2024-02-19T19:55:37.146Z,99.90
2024-02-19T19:58:11.366Z,99.90
2024-02-19T20:00:44.509Z,99.90
2024-02-19T20:03:11.706Z,99.90
2024-02-19T20:05:38.775Z,99.90
2024-02-19T20:08:08.560Z,99.90
2024-02-19T20:10:36.042Z,99.90
2024-02-19T20:13:04.588Z,99.90
2024-02-19T20:15:31.931Z,99.90
2024-02-19T20:17:59.274Z,99.90
2024-02-19T20:20:27.488Z,99.90
2024-02-19T20:22:54.769Z,99.90
2024-02-19T20:25:22.959Z,99.90
2024-02-19T20:27:50.247Z,99.90
2024-02-19T20:30:18.436Z,99.90
2024-02-19T20:32:47.148Z,99.90
2024-02-19T20:35:16.236Z,99.90
2024-02-19T20:37:45.055Z,99.90
2024-02-19T20:40:13.875Z,99.90
2024-02-19T20:42:41.038Z,99.90
2024-02-19T20:45:09.390Z,99.90
2024-02-19T20:47:40.971Z,99.90
2024-02-19T20:50:10.764Z,99.90
2024-02-19T20:52:38.413Z,99.90
2024-02-19T20:55:06.415Z,99.90
2024-02-19T20:57:35.912Z,99.90
2024-02-19T21:00:04.721Z,99.90
2024-02-19T21:02:32.288Z,99.90
2024-02-19T21:05:00.016Z,99.90
2024-02-19T21:07:27.260Z,99.90
2024-02-19T21:09:58.426Z,99.90
2024-02-19T21:12:25.632Z,99.90
2024-02-19T21:14:52.722Z,99.90
2024-02-19T21:17:20.131Z,99.90
2024-02-19T21:19:47.322Z,99.90
2024-02-19T21:22:14.375Z,99.90
2024-02-19T21:24:41.663Z,99.90
2024-02-19T21:27:08.612Z,99.90
2024-02-19T21:29:35.816Z,99.90
2024-02-19T21:32:04.626Z,99.90
2024-02-19T21:34:32.129Z,99.90
2024-02-19T21:36:59.305Z,99.90
2024-02-19T21:39:26.467Z,99.90
2024-02-19T21:41:53.674Z,99.90
2024-02-19T21:44:22.036Z,99.90
2024-02-19T21:46:49.133Z,99.90
2024-02-19T21:49:19.197Z,99.90
2024-02-19T21:51:46.576Z,99.90
2024-02-19T21:54:13.704Z,99.90
2024-02-19T21:56:42.107Z,99.90
2024-02-19T21:59:09.234Z,99.90
2024-02-19T22:01:38.865Z,99.90
2024-02-19T22:04:06.774Z,99.90
2024-02-19T22:06:33.812Z,99.90
2024-02-19T22:09:01.668Z,99.90
2024-02-19T22:11:29.340Z,99.90
2024-02-19T22:13:57.013Z,99.90
2024-02-19T22:16:24.123Z,99.90
2024-02-19T22:18:51.227Z,99.90
2024-02-19T22:21:18.326Z,99.90
2024-02-19T22:23:45.548Z,99.90
2024-02-19T22:26:12.481Z,99.90
2024-02-19T22:28:39.660Z,99.90
2024-02-19T22:31:07.983Z,99.90
2024-02-19T22:33:39.420Z,99.90
2024-02-19T22:36:08.279Z,99.90
2024-02-19T22:38:35.833Z,99.90
2024-02-19T22:41:02.791Z,99.90
2024-02-19T22:43:30.582Z,99.90
2024-02-19T22:45:57.605Z,99.90
2024-02-19T22:48:24.734Z,99.90
2024-02-19T22:50:51.686Z,99.90
2024-02-19T22:53:19.540Z,99.90
2024-02-19T22:55:47.014Z,99.90
2024-02-19T22:58:28.714Z,99.90
2024-02-19T23:00:58.950Z,99.90
2024-02-19T23:03:25.948Z,99.90
2024-02-19T23:05:53.289Z,99.90
2024-02-19T23:08:21.057Z,99.90
2024-02-19T23:10:48.417Z,99.40
2024-02-19T23:13:15.470Z,98.10
2024-02-19T23:15:42.722Z,97.10
2024-02-19T23:18:09.901Z,97.00
2024-02-19T23:20:37.337Z,97.60
2024-02-19T23:23:05.701Z,97.70
2024-02-19T23:25:33.097Z,98.20
2024-02-19T23:28:00.166Z,98.70
2024-02-19T23:30:30.553Z,99.00
2024-02-19T23:32:59.285Z,98.40
2024-02-19T23:35:30.102Z,97.70
2024-02-19T23:37:57.169Z,97.80
2024-02-19T23:40:24.188Z,98.20
2024-02-19T23:42:51.615Z,97.40
2024-02-19T23:45:20.238Z,97.60
2024-02-19T23:47:47.191Z,95.90
2024-02-19T23:50:14.461Z,94.70
2024-02-19T23:52:42.331Z,94.00
2024-02-19T23:55:10.775Z,93.80
2024-02-19T23:57:41.093Z,94.30
